sensor_id;sensor_type;location;lat;lon;timestamp;pressure;altitude;pressure_sealevel;temperature;humidity
25855;BME280;13680;49.936;11.344;2023-06-26T00:01:37;96776.28;;;18.95;67.94
25855;BME280;13680;49.936;11.344;2023-06-26T00:04:05;96779.34;;;18.93;67.83
25855;BME280;13680;49.936;11.344;2023-06-26T00:06:30;96776.97;;;18.92;67.79
25855;BME280;13680;49.936;11.344;2023-06-26T00:08:56;96771.25;;;18.81;68.32
25855;BME280;13680;49.936;11.344;2023-06-26T00:11:22;96779.41;;;18.81;68.65
25855;BME280;13680;49.936;11.344;2023-06-26T00:13:47;96776.59;;;18.77;68.54
25855;BME280;13680;49.936;11.344;2023-06-26T00:16:13;96778.91;;;18.75;68.32
25855;BME280;13680;49.936;11.344;2023-06-26T00:18:38;96781.19;;;18.73;68.54
25855;BME280;13680;49.936;11.344;2023-06-26T00:21:04;96780.22;;;18.65;68.84
25855;BME280;13680;49.936;11.344;2023-06-26T00:23:29;96776.63;;;18.61;69.20
25855;BME280;13680;49.936;11.344;2023-06-26T00:25:56;96781.16;;;18.57;69.45
25855;BME280;13680;49.936;11.344;2023-06-26T00:28:22;96781.53;;;18.56;69.57
25855;BME280;13680;49.936;11.344;2023-06-26T00:30:48;96784.97;;;18.53;69.71
25855;BME280;13680;49.936;11.344;2023-06-26T00:33:13;96777.38;;;18.46;69.63
25855;BME280;13680;49.936;11.344;2023-06-26T00:35:38;96778.19;;;18.46;69.72
25855;BME280;13680;49.936;11.344;2023-06-26T00:38:04;96784.00;;;18.45;69.68
25855;BME280;13680;49.936;11.344;2023-06-26T00:40:29;96786.53;;;18.38;69.81
25855;BME280;13680;49.936;11.344;2023-06-26T00:42:54;96783.09;;;18.41;69.68
25855;BME280;13680;49.936;11.344;2023-06-26T00:45:20;96777.03;;;18.31;70.11
25855;BME280;13680;49.936;11.344;2023-06-26T00:47:45;96771.06;;;18.26;70.01
25855;BME280;13680;49.936;11.344;2023-06-26T00:50:11;96781.50;;;18.24;70.40
25855;BME280;13680;49.936;11.344;2023-06-26T00:52:37;96770.09;;;18.18;70.82
25855;BME280;13680;49.936;11.344;2023-06-26T00:55:03;96774.47;;;18.23;70.44
25855;BME280;13680;49.936;11.344;2023-06-26T00:57:30;96770.41;;;18.16;70.75
25855;BME280;13680;49.936;11.344;2023-06-26T00:59:55;96772.72;;;18.14;70.81
25855;BME280;13680;49.936;11.344;2023-06-26T01:02:20;96769.53;;;18.12;70.86
25855;BME280;13680;49.936;11.344;2023-06-26T01:04:49;96768.41;;;18.13;70.72
25855;BME280;13680;49.936;11.344;2023-06-26T01:07:16;96777.69;;;18.12;70.46
25855;BME280;13680;49.936;11.344;2023-06-26T01:09:44;96780.25;;;18.05;71.02
25855;BME280;13680;49.936;11.344;2023-06-26T01:12:11;96774.50;;;17.94;71.18
25855;BME280;13680;49.936;11.344;2023-06-26T01:14:36;96768.56;;;17.92;71.05
25855;BME280;13680;49.936;11.344;2023-06-26T01:17:02;96765.63;;;17.97;70.86
25855;BME280;13680;49.936;11.344;2023-06-26T01:19:30;96775.97;;;17.92;71.32
25855;BME280;13680;49.936;11.344;2023-06-26T01:22:06;96771.31;;;17.92;71.55
25855;BME280;13680;49.936;11.344;2023-06-26T01:24:41;96767.94;;;17.83;71.37
25855;BME280;13680;49.936;11.344;2023-06-26T01:27:10;96760.84;;;17.78;71.33
25855;BME280;13680;49.936;11.344;2023-06-26T01:29:37;96758.13;;;17.78;71.52
25855;BME280;13680;49.936;11.344;2023-06-26T01:32:03;96756.44;;;17.74;72.17
25855;BME280;13680;49.936;11.344;2023-06-26T01:34:29;96754.06;;;17.72;71.95
25855;BME280;13680;49.936;11.344;2023-06-26T01:36:54;96757.28;;;17.62;71.85
25855;BME280;13680;49.936;11.344;2023-06-26T01:39:20;96749.56;;;17.64;71.73
25855;BME280;13680;49.936;11.344;2023-06-26T01:41:45;96750.25;;;17.61;71.59
25855;BME280;13680;49.936;11.344;2023-06-26T01:47:02;96757.06;;;17.55;71.83
25855;BME280;13680;49.936;11.344;2023-06-26T01:49:52;96750.03;;;17.54;72.71
25855;BME280;13680;49.936;11.344;2023-06-26T01:52:29;96753.94;;;17.40;72.79
25855;BME280;13680;49.936;11.344;2023-06-26T01:57:27;96747.47;;;17.45;72.16
25855;BME280;13680;49.936;11.344;2023-06-26T01:59:54;96756.31;;;17.42;72.09
25855;BME280;13680;49.936;11.344;2023-06-26T02:02:25;96750.78;;;17.38;71.81
25855;BME280;13680;49.936;11.344;2023-06-26T02:04:51;96746.34;;;17.33;72.20
25855;BME280;13680;49.936;11.344;2023-06-26T02:07:17;96751.78;;;17.33;72.37
25855;BME280;13680;49.936;11.344;2023-06-26T02:09:42;96742.41;;;17.31;72.70
25855;BME280;13680;49.936;11.344;2023-06-26T02:12:08;96750.91;;;17.29;72.52
25855;BME280;13680;49.936;11.344;2023-06-26T02:14:34;96757.03;;;17.26;72.72
25855;BME280;13680;49.936;11.344;2023-06-26T02:16:59;96744.47;;;17.22;72.49
25855;BME280;13680;49.936;11.344;2023-06-26T02:19:25;96747.88;;;17.18;72.42
25855;BME280;13680;49.936;11.344;2023-06-26T02:21:53;96750.13;;;17.16;72.43
25855;BME280;13680;49.936;11.344;2023-06-26T02:24:18;96748.13;;;17.13;72.62
25855;BME280;13680;49.936;11.344;2023-06-26T02:26:44;96746.97;;;17.14;72.70
25855;BME280;13680;49.936;11.344;2023-06-26T02:29:09;96755.03;;;17.11;72.55
25855;BME280;13680;49.936;11.344;2023-06-26T02:31:35;96747.53;;;17.08;72.19
25855;BME280;13680;49.936;11.344;2023-06-26T02:34:00;96749.94;;;16.97;72.64
25855;BME280;13680;49.936;11.344;2023-06-26T02:36:25;96751.75;;;16.93;72.96
25855;BME280;13680;49.936;11.344;2023-06-26T02:38:50;96749.84;;;16.93;73.38
25855;BME280;13680;49.936;11.344;2023-06-26T02:41:16;96752.91;;;16.92;73.23
25855;BME280;13680;49.936;11.344;2023-06-26T02:43:41;96748.47;;;16.99;73.06
25855;BME280;13680;49.936;11.344;2023-06-26T02:46:06;96752.91;;;16.92;72.99
25855;BME280;13680;49.936;11.344;2023-06-26T02:48:32;96763.28;;;16.90;73.61
25855;BME280;13680;49.936;11.344;2023-06-26T02:50:57;96755.91;;;16.90;73.08
25855;BME280;13680;49.936;11.344;2023-06-26T02:53:22;96756.47;;;16.83;72.92
25855;BME280;13680;49.936;11.344;2023-06-26T02:55:47;96764.84;;;16.78;73.25
25855;BME280;13680;49.936;11.344;2023-06-26T02:58:13;96767.09;;;16.76;73.27
25855;BME280;13680;49.936;11.344;2023-06-26T03:00:38;96753.22;;;16.78;72.86
25855;BME280;13680;49.936;11.344;2023-06-26T03:03:07;96765.53;;;16.75;72.73
25855;BME280;13680;49.936;11.344;2023-06-26T03:05:33;96752.84;;;16.67;72.83
25855;BME280;13680;49.936;11.344;2023-06-26T03:07:58;96748.13;;;16.64;73.23
25855;BME280;13680;49.936;11.344;2023-06-26T03:10:23;96755.56;;;16.67;73.39
25855;BME280;13680;49.936;11.344;2023-06-26T03:12:49;96754.22;;;16.61;73.28
25855;BME280;13680;49.936;11.344;2023-06-26T03:15:14;96752.66;;;16.60;73.24
25855;BME280;13680;49.936;11.344;2023-06-26T03:17:39;96744.03;;;16.58;73.49
25855;BME280;13680;49.936;11.344;2023-06-26T03:20:06;96744.94;;;16.62;73.33
25855;BME280;13680;49.936;11.344;2023-06-26T03:22:32;96749.13;;;16.59;73.58
25855;BME280;13680;49.936;11.344;2023-06-26T03:24:58;96745.84;;;16.53;73.65
25855;BME280;13680;49.936;11.344;2023-06-26T03:27:23;96746.16;;;16.52;73.72
25855;BME280;13680;49.936;11.344;2023-06-26T03:29:48;96747.63;;;16.49;73.81
25855;BME280;13680;49.936;11.344;2023-06-26T03:32:14;96735.66;;;16.50;73.67
25855;BME280;13680;49.936;11.344;2023-06-26T03:34:39;96745.28;;;16.48;74.29
25855;BME280;13680;49.936;11.344;2023-06-26T03:37:04;96738.72;;;16.49;73.94
25855;BME280;13680;49.936;11.344;2023-06-26T03:39:30;96744.25;;;16.52;73.50
25855;BME280;13680;49.936;11.344;2023-06-26T03:41:55;96744.59;;;16.51;73.69
25855;BME280;13680;49.936;11.344;2023-06-26T03:44:25;96741.31;;;16.45;73.97
25855;BME280;13680;49.936;11.344;2023-06-26T03:46:50;96750.34;;;16.49;74.04
25855;BME280;13680;49.936;11.344;2023-06-26T03:49:15;96744.59;;;16.51;73.81
25855;BME280;13680;49.936;11.344;2023-06-26T03:51:41;96741.09;;;16.50;73.63
25855;BME280;13680;49.936;11.344;2023-06-26T03:54:06;96739.72;;;16.57;73.38
25855;BME280;13680;49.936;11.344;2023-06-26T03:56:31;96741.31;;;16.58;73.14
25855;BME280;13680;49.936;11.344;2023-06-26T03:58:57;96741.44;;;16.61;73.03
25855;BME280;13680;49.936;11.344;2023-06-26T04:01:22;96746.75;;;16.70;72.45
25855;BME280;13680;49.936;11.344;2023-06-26T04:03:47;96741.34;;;16.70;72.85
25855;BME280;13680;49.936;11.344;2023-06-26T04:06:13;96740.28;;;16.75;72.55
25855;BME280;13680;49.936;11.344;2023-06-26T04:08:38;96740.06;;;16.80;72.60
25855;BME280;13680;49.936;11.344;2023-06-26T04:11:03;96744.13;;;16.86;72.75
25855;BME280;13680;49.936;11.344;2023-06-26T04:13:29;96736.69;;;16.95;72.88
25855;BME280;13680;49.936;11.344;2023-06-26T04:15:54;96731.59;;;17.06;72.51
25855;BME280;13680;49.936;11.344;2023-06-26T04:18:19;96725.09;;;17.23;72.26
25855;BME280;13680;49.936;11.344;2023-06-26T04:21:08;96728.38;;;17.29;71.38
25855;BME280;13680;49.936;11.344;2023-06-26T04:23:34;96733.50;;;17.46;71.43
25855;BME280;13680;49.936;11.344;2023-06-26T04:25:59;96731.22;;;17.61;70.90
25855;BME280;13680;49.936;11.344;2023-06-26T04:28:25;96729.59;;;17.72;70.68
25855;BME280;13680;49.936;11.344;2023-06-26T04:30:50;96739.09;;;17.78;70.21
25855;BME280;13680;49.936;11.344;2023-06-26T04:33:16;96727.25;;;17.87;70.02
25855;BME280;13680;49.936;11.344;2023-06-26T04:35:41;96728.44;;;18.02;69.99
25855;BME280;13680;49.936;11.344;2023-06-26T04:38:09;96728.97;;;18.07;70.17
25855;BME280;13680;49.936;11.344;2023-06-26T04:40:35;96730.22;;;18.26;69.85
25855;BME280;13680;49.936;11.344;2023-06-26T04:43:00;96722.69;;;18.35;69.50
25855;BME280;13680;49.936;11.344;2023-06-26T04:45:25;96731.91;;;18.46;69.85
25855;BME280;13680;49.936;11.344;2023-06-26T04:47:51;96726.28;;;18.55;69.35
25855;BME280;13680;49.936;11.344;2023-06-26T04:50:16;96732.84;;;18.70;69.29
25855;BME280;13680;49.936;11.344;2023-06-26T04:52:44;96727.66;;;18.81;68.84
25855;BME280;13680;49.936;11.344;2023-06-26T04:55:09;96723.88;;;18.86;68.39
25855;BME280;13680;49.936;11.344;2023-06-26T04:57:34;96720.63;;;18.80;68.80
25855;BME280;13680;49.936;11.344;2023-06-26T04:59:59;96729.94;;;18.95;68.56
25855;BME280;13680;49.936;11.344;2023-06-26T05:02:25;96723.59;;;19.07;68.58
25855;BME280;13680;49.936;11.344;2023-06-26T05:04:51;96718.88;;;19.23;68.00
25855;BME280;13680;49.936;11.344;2023-06-26T05:07:17;96715.22;;;19.35;67.72
25855;BME280;13680;49.936;11.344;2023-06-26T05:09:42;96714.38;;;19.51;67.46
25855;BME280;13680;49.936;11.344;2023-06-26T05:12:07;96721.19;;;19.60;66.80
25855;BME280;13680;49.936;11.344;2023-06-26T05:14:33;96717.03;;;19.67;67.03
25855;BME280;13680;49.936;11.344;2023-06-26T05:16:58;96714.91;;;19.79;66.93
25855;BME280;13680;49.936;11.344;2023-06-26T05:19:23;96724.63;;;19.77;67.64
25855;BME280;13680;49.936;11.344;2023-06-26T05:21:50;96719.41;;;19.88;67.49
25855;BME280;13680;49.936;11.344;2023-06-26T05:24:16;96713.13;;;20.07;66.98
25855;BME280;13680;49.936;11.344;2023-06-26T05:26:41;96714.88;;;20.19;66.86
25855;BME280;13680;49.936;11.344;2023-06-26T05:29:07;96717.53;;;20.38;65.74
25855;BME280;13680;49.936;11.344;2023-06-26T05:31:33;96711.53;;;20.52;65.55
25855;BME280;13680;49.936;11.344;2023-06-26T05:34:02;96718.44;;;20.69;65.69
25855;BME280;13680;49.936;11.344;2023-06-26T05:36:29;96720.94;;;20.78;65.94
25855;BME280;13680;49.936;11.344;2023-06-26T05:38:58;96713.59;;;20.82;66.09
25855;BME280;13680;49.936;11.344;2023-06-26T05:41:23;96708.78;;;21.02;66.37
25855;BME280;13680;49.936;11.344;2023-06-26T05:43:49;96706.25;;;21.17;65.15
25855;BME280;13680;49.936;11.344;2023-06-26T05:46:15;96709.56;;;21.30;65.26
25855;BME280;13680;49.936;11.344;2023-06-26T05:48:40;96706.53;;;21.69;63.80
25855;BME280;13680;49.936;11.344;2023-06-26T05:51:06;96703.66;;;21.92;63.24
25855;BME280;13680;49.936;11.344;2023-06-26T05:53:31;96710.91;;;22.15;63.16
25855;BME280;13680;49.936;11.344;2023-06-26T05:55:57;96705.59;;;22.33;63.02
25855;BME280;13680;49.936;11.344;2023-06-26T05:58:25;96709.25;;;22.48;62.66
25855;BME280;13680;49.936;11.344;2023-06-26T06:00:52;96707.09;;;22.71;62.03
25855;BME280;13680;49.936;11.344;2023-06-26T06:03:17;96706.41;;;22.85;61.67
25855;BME280;13680;49.936;11.344;2023-06-26T06:05:42;96699.78;;;22.90;60.19
25855;BME280;13680;49.936;11.344;2023-06-26T06:08:08;96705.63;;;22.85;60.53
25855;BME280;13680;49.936;11.344;2023-06-26T06:10:33;96698.66;;;22.98;58.70
25855;BME280;13680;49.936;11.344;2023-06-26T06:12:59;96698.03;;;23.23;58.02
25855;BME280;13680;49.936;11.344;2023-06-26T06:15:24;96697.75;;;23.50;57.02
25855;BME280;13680;49.936;11.344;2023-06-26T06:17:49;96688.06;;;23.81;56.13
25855;BME280;13680;49.936;11.344;2023-06-26T06:20:15;96686.56;;;24.06;54.75
25855;BME280;13680;49.936;11.344;2023-06-26T06:22:40;96688.16;;;24.32;52.33
25855;BME280;13680;49.936;11.344;2023-06-26T06:25:06;96686.19;;;24.50;51.75
25855;BME280;13680;49.936;11.344;2023-06-26T06:27:31;96687.78;;;24.66;50.96
25855;BME280;13680;49.936;11.344;2023-06-26T06:29:56;96692.88;;;24.82;50.38
25855;BME280;13680;49.936;11.344;2023-06-26T06:32:22;96699.53;;;24.88;48.91
25855;BME280;13680;49.936;11.344;2023-06-26T06:34:47;96692.44;;;25.09;49.04
25855;BME280;13680;49.936;11.344;2023-06-26T06:37:12;96698.28;;;25.22;49.10
25855;BME280;13680;49.936;11.344;2023-06-26T06:39:37;96695.94;;;25.24;48.80
25855;BME280;13680;49.936;11.344;2023-06-26T06:42:03;96692.72;;;25.43;47.91
25855;BME280;13680;49.936;11.344;2023-06-26T06:44:28;96692.69;;;25.54;48.47
25855;BME280;13680;49.936;11.344;2023-06-26T06:46:55;96682.78;;;25.71;47.56
25855;BME280;13680;49.936;11.344;2023-06-26T06:49:21;96676.81;;;25.84;47.17
25855;BME280;13680;49.936;11.344;2023-06-26T06:51:46;96685.81;;;25.91;46.45
25855;BME280;13680;49.936;11.344;2023-06-26T06:54:11;96681.41;;;26.01;47.10
25855;BME280;13680;49.936;11.344;2023-06-26T06:56:37;96674.69;;;26.09;46.78
25855;BME280;13680;49.936;11.344;2023-06-26T06:59:02;96686.00;;;26.26;45.31
25855;BME280;13680;49.936;11.344;2023-06-26T07:01:27;96683.66;;;26.24;45.75
25855;BME280;13680;49.936;11.344;2023-06-26T07:03:53;96679.47;;;26.54;45.30
25855;BME280;13680;49.936;11.344;2023-06-26T07:06:18;96680.50;;;26.75;45.74
25855;BME280;13680;49.936;11.344;2023-06-26T07:08:44;96676.16;;;26.74;44.83
25855;BME280;13680;49.936;11.344;2023-06-26T07:11:09;96678.97;;;26.67;45.21
25855;BME280;13680;49.936;11.344;2023-06-26T07:13:34;96667.22;;;27.01;44.21
25855;BME280;13680;49.936;11.344;2023-06-26T07:16:00;96667.84;;;27.16;43.78
25855;BME280;13680;49.936;11.344;2023-06-26T07:18:25;96669.97;;;27.39;44.34
25855;BME280;13680;49.936;11.344;2023-06-26T07:20:50;96669.66;;;27.64;43.16
25855;BME280;13680;49.936;11.344;2023-06-26T07:23:15;96670.25;;;27.79;41.56
25855;BME280;13680;49.936;11.344;2023-06-26T07:25:41;96654.41;;;27.83;41.67
25855;BME280;13680;49.936;11.344;2023-06-26T07:28:10;96657.88;;;27.87;41.72
25855;BME280;13680;49.936;11.344;2023-06-26T07:30:37;96654.84;;;28.09;41.92
25855;BME280;13680;49.936;11.344;2023-06-26T07:33:02;96651.91;;;28.44;40.84
25855;BME280;13680;49.936;11.344;2023-06-26T07:35:28;96658.25;;;28.44;40.64
25855;BME280;13680;49.936;11.344;2023-06-26T07:37:53;96653.38;;;28.52;40.78
25855;BME280;13680;49.936;11.344;2023-06-26T07:40:19;96655.09;;;28.89;39.96
25855;BME280;13680;49.936;11.344;2023-06-26T07:42:44;96650.72;;;29.12;38.88
25855;BME280;13680;49.936;11.344;2023-06-26T07:45:10;96647.59;;;29.50;36.80
25855;BME280;13680;49.936;11.344;2023-06-26T07:47:40;96651.91;;;29.71;35.43
25855;BME280;13680;49.936;11.344;2023-06-26T07:50:06;96652.53;;;29.79;34.88
25855;BME280;13680;49.936;11.344;2023-06-26T07:52:32;96647.25;;;29.85;34.50
25855;BME280;13680;49.936;11.344;2023-06-26T07:54:57;96645.31;;;29.65;34.70
25855;BME280;13680;49.936;11.344;2023-06-26T07:57:23;96641.41;;;29.63;36.78
25855;BME280;13680;49.936;11.344;2023-06-26T07:59:48;96654.84;;;29.81;33.31
25855;BME280;13680;49.936;11.344;2023-06-26T08:02:13;96653.13;;;29.50;32.99
25855;BME280;13680;49.936;11.344;2023-06-26T08:04:39;96640.09;;;29.67;33.93
25855;BME280;13680;49.936;11.344;2023-06-26T08:07:04;96643.53;;;29.92;32.27
25855;BME280;13680;49.936;11.344;2023-06-26T08:09:30;96640.38;;;29.93;32.97
25855;BME280;13680;49.936;11.344;2023-06-26T08:11:56;96639.22;;;30.40;32.83
25855;BME280;13680;49.936;11.344;2023-06-26T08:14:22;96633.88;;;30.66;31.06
25855;BME280;13680;49.936;11.344;2023-06-26T08:16:48;96633.47;;;30.80;32.08
25855;BME280;13680;49.936;11.344;2023-06-26T08:19:15;96637.56;;;31.05;32.18
25855;BME280;13680;49.936;11.344;2023-06-26T08:21:41;96636.97;;;30.97;30.36
25855;BME280;13680;49.936;11.344;2023-06-26T08:24:07;96637.81;;;30.81;30.50
25855;BME280;13680;49.936;11.344;2023-06-26T08:26:32;96629.66;;;31.33;29.25
25855;BME280;13680;49.936;11.344;2023-06-26T08:28:57;96630.47;;;31.46;31.77
25855;BME280;13680;49.936;11.344;2023-06-26T08:31:23;96630.56;;;31.30;29.78
25855;BME280;13680;49.936;11.344;2023-06-26T08:33:48;96632.25;;;31.53;30.31
25855;BME280;13680;49.936;11.344;2023-06-26T08:36:14;96626.75;;;31.92;30.36
25855;BME280;13680;49.936;11.344;2023-06-26T08:38:39;96623.19;;;31.78;28.08
25855;BME280;13680;49.936;11.344;2023-06-26T08:41:06;96631.03;;;31.41;28.94
25855;BME280;13680;49.936;11.344;2023-06-26T08:53:56;96604.44;;;32.43;27.81
25855;BME280;13680;49.936;11.344;2023-06-26T08:56:25;96613.06;;;32.71;28.94
25855;BME280;13680;49.936;11.344;2023-06-26T08:58:53;96615.34;;;32.86;28.27
25855;BME280;13680;49.936;11.344;2023-06-26T09:01:18;96611.16;;;32.68;28.18
25855;BME280;13680;49.936;11.344;2023-06-26T09:03:44;96617.72;;;32.74;28.01
25855;BME280;13680;49.936;11.344;2023-06-26T09:06:09;96614.19;;;32.96;27.17
25855;BME280;13680;49.936;11.344;2023-06-26T09:08:35;96606.28;;;33.17;26.60
25855;BME280;13680;49.936;11.344;2023-06-26T09:11:01;96610.53;;;33.53;27.51
25855;BME280;13680;49.936;11.344;2023-06-26T09:13:28;96599.56;;;33.58;27.92
25855;BME280;13680;49.936;11.344;2023-06-26T09:15:54;96602.94;;;33.53;26.90
25855;BME280;13680;49.936;11.344;2023-06-26T09:18:20;96604.53;;;33.64;26.40
25855;BME280;13680;49.936;11.344;2023-06-26T09:20:46;96609.22;;;34.07;26.22
25855;BME280;13680;49.936;11.344;2023-06-26T09:23:12;96609.09;;;33.26;24.92
25855;BME280;13680;49.936;11.344;2023-06-26T09:25:39;96602.25;;;33.18;27.14
25855;BME280;13680;49.936;11.344;2023-06-26T09:28:05;96600.94;;;33.54;24.44
25855;BME280;13680;49.936;11.344;2023-06-26T09:30:32;96606.00;;;33.02;24.21
25855;BME280;13680;49.936;11.344;2023-06-26T09:32:57;96600.66;;;33.29;25.04
25855;BME280;13680;49.936;11.344;2023-06-26T09:35:23;96599.88;;;33.29;25.89
25855;BME280;13680;49.936;11.344;2023-06-26T09:37:50;96604.50;;;33.86;24.31
25855;BME280;13680;49.936;11.344;2023-06-26T09:40:15;96597.88;;;33.07;25.28
25855;BME280;13680;49.936;11.344;2023-06-26T09:42:42;96604.31;;;33.04;25.72
25855;BME280;13680;49.936;11.344;2023-06-26T09:45:17;96605.50;;;32.94;26.01
25855;BME280;13680;49.936;11.344;2023-06-26T09:47:44;96596.50;;;32.55;25.67
25855;BME280;13680;49.936;11.344;2023-06-26T09:50:21;96593.22;;;32.69;26.20
25855;BME280;13680;49.936;11.344;2023-06-26T09:52:47;96595.16;;;32.94;26.22
25855;BME280;13680;49.936;11.344;2023-06-26T09:55:12;96592.91;;;33.34;25.31
25855;BME280;13680;49.936;11.344;2023-06-26T09:57:38;96594.69;;;33.40;26.29
25855;BME280;13680;49.936;11.344;2023-06-26T10:00:04;96596.31;;;33.28;24.28
25855;BME280;13680;49.936;11.344;2023-06-26T10:02:30;96594.63;;;33.31;24.50
25855;BME280;13680;49.936;11.344;2023-06-26T10:04:56;96590.34;;;33.39;26.09
25855;BME280;13680;49.936;11.344;2023-06-26T10:07:21;96597.28;;;33.66;25.07
25855;BME280;13680;49.936;11.344;2023-06-26T10:09:48;96585.66;;;33.99;25.46
25855;BME280;13680;49.936;11.344;2023-06-26T10:12:28;96591.38;;;33.96;24.41
25855;BME280;13680;49.936;11.344;2023-06-26T10:14:55;96580.56;;;33.75;24.42
25855;BME280;13680;49.936;11.344;2023-06-26T10:17:21;96572.94;;;34.07;25.03
25855;BME280;13680;49.936;11.344;2023-06-26T10:19:47;96575.38;;;34.46;25.96
25855;BME280;13680;49.936;11.344;2023-06-26T10:22:17;96571.94;;;34.98;24.79
25855;BME280;13680;49.936;11.344;2023-06-26T10:24:43;96564.81;;;34.97;24.04
25855;BME280;13680;49.936;11.344;2023-06-26T10:27:16;96572.09;;;35.13;24.28
25855;BME280;13680;49.936;11.344;2023-06-26T10:29:48;96565.59;;;34.60;23.95
25855;BME280;13680;49.936;11.344;2023-06-26T10:32:15;96566.97;;;33.77;23.70
25855;BME280;13680;49.936;11.344;2023-06-26T10:34:42;96562.50;;;34.86;22.66
25855;BME280;13680;49.936;11.344;2023-06-26T10:37:08;96562.19;;;34.65;22.50
25855;BME280;13680;49.936;11.344;2023-06-26T10:39:47;96564.81;;;34.78;21.22
25855;BME280;13680;49.936;11.344;2023-06-26T10:42:14;96565.91;;;34.90;21.34
25855;BME280;13680;49.936;11.344;2023-06-26T10:44:44;96566.81;;;34.78;21.74
25855;BME280;13680;49.936;11.344;2023-06-26T10:47:11;96565.91;;;34.81;22.23
25855;BME280;13680;49.936;11.344;2023-06-26T10:49:37;96561.69;;;34.76;21.13
25855;BME280;13680;49.936;11.344;2023-06-26T10:52:07;96561.78;;;35.80;20.94
25855;BME280;13680;49.936;11.344;2023-06-26T10:54:33;96559.06;;;36.19;20.69
25855;BME280;13680;49.936;11.344;2023-06-26T10:56:58;96563.56;;;36.65;20.35
25855;BME280;13680;49.936;11.344;2023-06-26T10:59:28;96566.97;;;35.02;21.23
25855;BME280;13680;49.936;11.344;2023-06-26T11:01:59;96551.28;;;35.14;20.97
25855;BME280;13680;49.936;11.344;2023-06-26T11:04:45;96554.41;;;34.97;21.27
25855;BME280;13680;49.936;11.344;2023-06-26T11:10:01;96551.75;;;35.03;24.18
25855;BME280;13680;49.936;11.344;2023-06-26T11:12:40;96564.34;;;35.07;22.16
25855;BME280;13680;49.936;11.344;2023-06-26T11:15:12;96547.41;;;34.74;22.82
25855;BME280;13680;49.936;11.344;2023-06-26T11:17:38;96561.97;;;34.32;23.64
25855;BME280;13680;49.936;11.344;2023-06-26T11:20:08;96562.47;;;35.04;22.74
25855;BME280;13680;49.936;11.344;2023-06-26T11:22:39;96554.44;;;34.60;23.37
25855;BME280;13680;49.936;11.344;2023-06-26T11:25:06;96548.84;;;34.97;23.17
25855;BME280;13680;49.936;11.344;2023-06-26T11:27:38;96559.25;;;35.49;23.54
25855;BME280;13680;49.936;11.344;2023-06-26T11:30:10;96555.03;;;35.01;22.48
25855;BME280;13680;49.936;11.344;2023-06-26T11:32:37;96546.56;;;35.29;22.47
25855;BME280;13680;49.936;11.344;2023-06-26T11:35:03;96540.34;;;35.34;21.47
25855;BME280;13680;49.936;11.344;2023-06-26T11:37:31;96553.16;;;35.07;22.16
25855;BME280;13680;49.936;11.344;2023-06-26T11:39:56;96542.22;;;35.37;22.01
25855;BME280;13680;49.936;11.344;2023-06-26T11:42:22;96542.34;;;35.86;21.73
25855;BME280;13680;49.936;11.344;2023-06-26T11:44:49;96535.78;;;34.94;22.52
25855;BME280;13680;49.936;11.344;2023-06-26T11:47:18;96536.88;;;34.78;23.66
25855;BME280;13680;49.936;11.344;2023-06-26T11:49:44;96539.19;;;34.98;22.15
25855;BME280;13680;49.936;11.344;2023-06-26T11:52:10;96537.28;;;35.99;22.31
25855;BME280;13680;49.936;11.344;2023-06-26T11:54:35;96528.09;;;36.47;22.00
25855;BME280;13680;49.936;11.344;2023-06-26T11:57:01;96536.63;;;36.29;21.54
25855;BME280;13680;49.936;11.344;2023-06-26T11:59:37;96528.97;;;35.81;21.71
25855;BME280;13680;49.936;11.344;2023-06-26T12:02:09;96529.81;;;36.84;21.87
25855;BME280;13680;49.936;11.344;2023-06-26T12:04:40;96535.25;;;36.48;21.85
25855;BME280;13680;49.936;11.344;2023-06-26T12:07:07;96522.63;;;36.83;22.35
25855;BME280;13680;49.936;11.344;2023-06-26T12:09:37;96527.25;;;37.61;20.97
25855;BME280;13680;49.936;11.344;2023-06-26T12:12:03;96523.63;;;37.10;20.05
25855;BME280;13680;49.936;11.344;2023-06-26T12:14:30;96521.25;;;37.03;20.28
25855;BME280;13680;49.936;11.344;2023-06-26T12:17:04;96518.94;;;37.66;20.86
25855;BME280;13680;49.936;11.344;2023-06-26T12:19:29;96522.88;;;37.75;19.08
25855;BME280;13680;49.936;11.344;2023-06-26T12:21:54;96521.31;;;37.74;19.82
25855;BME280;13680;49.936;11.344;2023-06-26T12:24:22;96521.03;;;36.91;19.77
25855;BME280;13680;49.936;11.344;2023-06-26T12:26:53;96524.94;;;36.30;19.61
25855;BME280;13680;49.936;11.344;2023-06-26T12:29:21;96532.75;;;35.68;20.08
25855;BME280;13680;49.936;11.344;2023-06-26T12:31:52;96521.34;;;35.57;19.90
25855;BME280;13680;49.936;11.344;2023-06-26T12:34:19;96517.28;;;35.92;21.06
25855;BME280;13680;49.936;11.344;2023-06-26T12:36:48;96516.00;;;37.10;19.62
25855;BME280;13680;49.936;11.344;2023-06-26T12:39:19;96514.94;;;37.73;19.78
25855;BME280;13680;49.936;11.344;2023-06-26T12:41:49;96508.41;;;37.61;18.72
25855;BME280;13680;49.936;11.344;2023-06-26T12:44:18;96503.41;;;38.07;18.24
25855;BME280;13680;49.936;11.344;2023-06-26T12:46:46;96498.50;;;38.22;20.95
25855;BME280;13680;49.936;11.344;2023-06-26T12:49:12;96502.09;;;37.66;19.79
25855;BME280;13680;49.936;11.344;2023-06-26T12:51:37;96491.72;;;37.73;19.87
25855;BME280;13680;49.936;11.344;2023-06-26T12:54:03;96502.34;;;38.04;19.22
25855;BME280;13680;49.936;11.344;2023-06-26T12:56:28;96490.19;;;38.54;18.03
25855;BME280;13680;49.936;11.344;2023-06-26T12:58:53;96502.78;;;38.18;19.08
25855;BME280;13680;49.936;11.344;2023-06-26T13:01:19;96491.78;;;37.93;18.69
25855;BME280;13680;49.936;11.344;2023-06-26T13:03:45;96498.47;;;37.45;19.82
25855;BME280;13680;49.936;11.344;2023-06-26T13:06:10;96489.50;;;37.26;20.46